sensor_id;sensor_type;location;lat;lon;timestamp;P1;durP1;ratioP1;P2;durP2;ratioP2
14892;SDS011;7538;53.626;9.906;2024-02-14T00:00:43;5.77;;;2.17;;
14892;SDS011;7538;53.626;9.906;2024-02-14T00:03:10;4.13;;;2.40;;
14892;SDS011;7538;53.626;9.906;2024-02-14T00:05:37;3.03;;;2.50;;
14892;SDS011;7538;53.626;9.906;2024-02-14T00:08:06;3.87;;;2.40;;
14892;SDS011;7538;53.626;9.906;2024-02-14T00:10:33;3.47;;;2.30;;
14892;SDS011;7538;53.626;9.906;2024-02-14T00:12:59;3.10;;;2.27;;
14892;SDS011;7538;53.626;9.906;2024-02-14T00:15:27;3.80;;;2.50;;
14892;SDS011;7538;53.626;9.906;2024-02-14T00:17:55;4.40;;;2.00;;
14892;SDS011;7538;53.626;9.906;2024-02-14T00:20:22;4.67;;;2.13;;
14892;SDS011;7538;53.626;9.906;2024-02-14T00:22:49;3.97;;;2.50;;
14892;SDS011;7538;53.626;9.906;2024-02-14T00:25:16;3.43;;;2.23;;
14892;SDS011;7538;53.626;9.906;2024-02-14T00:27:43;4.15;;;2.33;;
14892;SDS011;7538;53.626;9.906;2024-02-14T00:30:10;3.65;;;2.75;;
14892;SDS011;7538;53.626;9.906;2024-02-14T00:32:37;4.93;;;2.30;;
14892;SDS011;7538;53.626;9.906;2024-02-14T00:35:05;6.45;;;2.42;;
14892;SDS011;7538;53.626;9.906;2024-02-14T00:37:32;4.50;;;2.57;;
14892;SDS011;7538;53.626;9.906;2024-02-14T00:39:59;3.23;;;2.30;;
14892;SDS011;7538;53.626;9.906;2024-02-14T00:42:26;3.92;;;2.28;;
14892;SDS011;7538;53.626;9.906;2024-02-14T00:44:53;4.07;;;2.40;;
14892;SDS011;7538;53.626;9.906;2024-02-14T00:47:20;6.55;;;2.72;;
14892;SDS011;7538;53.626;9.906;2024-02-14T00:49:47;4.00;;;2.50;;
14892;SDS011;7538;53.626;9.906;2024-02-14T00:52:15;4.90;;;2.40;;
14892;SDS011;7538;53.626;9.906;2024-02-14T00:54:42;3.17;;;2.35;;
14892;SDS011;7538;53.626;9.906;2024-02-14T00:57:09;3.93;;;2.50;;
14892;SDS011;7538;53.626;9.906;2024-02-14T00:59:36;4.83;;;2.50;;
14892;SDS011;7538;53.626;9.906;2024-02-14T01:02:03;3.23;;;2.50;;
14892;SDS011;7538;53.626;9.906;2024-02-14T01:04:30;6.40;;;2.57;;
14892;SDS011;7538;53.626;9.906;2024-02-14T01:06:57;4.07;;;2.50;;
14892;SDS011;7538;53.626;9.906;2024-02-14T01:09:25;5.03;;;2.65;;
14892;SDS011;7538;53.626;9.906;2024-02-14T01:11:52;3.43;;;2.57;;
14892;SDS011;7538;53.626;9.906;2024-02-14T01:14:19;3.83;;;2.53;;
14892;SDS011;7538;53.626;9.906;2024-02-14T01:16:47;5.00;;;2.80;;
14892;SDS011;7538;53.626;9.906;2024-02-14T01:19:14;3.63;;;2.50;;
14892;SDS011;7538;53.626;9.906;2024-02-14T01:21:40;4.67;;;2.43;;
14892;SDS011;7538;53.626;9.906;2024-02-14T01:24:07;3.20;;;2.40;;
14892;SDS011;7538;53.626;9.906;2024-02-14T01:26:36;5.47;;;2.90;;
14892;SDS011;7538;53.626;9.906;2024-02-14T01:29:03;3.53;;;3.10;;
14892;SDS011;7538;53.626;9.906;2024-02-14T01:31:30;4.17;;;3.07;;
14892;SDS011;7538;53.626;9.906;2024-02-14T01:33:59;3.83;;;2.80;;
14892;SDS011;7538;53.626;9.906;2024-02-14T01:36:26;5.90;;;3.13;;
14892;SDS011;7538;53.626;9.906;2024-02-14T01:38:53;6.70;;;3.63;;
14892;SDS011;7538;53.626;9.906;2024-02-14T01:41:20;6.95;;;3.47;;
14892;SDS011;7538;53.626;9.906;2024-02-14T01:43:49;5.37;;;3.50;;
14892;SDS011;7538;53.626;9.906;2024-02-14T01:46:15;6.60;;;4.17;;
14892;SDS011;7538;53.626;9.906;2024-02-14T01:48:42;6.83;;;3.43;;
14892;SDS011;7538;53.626;9.906;2024-02-14T01:51:10;5.07;;;3.60;;
14892;SDS011;7538;53.626;9.906;2024-02-14T01:53:39;5.63;;;4.23;;
14892;SDS011;7538;53.626;9.906;2024-02-14T01:56:07;7.10;;;4.40;;
14892;SDS011;7538;53.626;9.906;2024-02-14T01:58:34;6.97;;;4.83;;
14892;SDS011;7538;53.626;9.906;2024-02-14T02:01:04;7.43;;;4.70;;
14892;SDS011;7538;53.626;9.906;2024-02-14T02:03:32;8.10;;;5.00;;
14892;SDS011;7538;53.626;9.906;2024-02-14T02:06:01;5.90;;;4.87;;
14892;SDS011;7538;53.626;9.906;2024-02-14T02:08:28;6.70;;;5.00;;
14892;SDS011;7538;53.626;9.906;2024-02-14T02:10:55;6.23;;;4.97;;
14892;SDS011;7538;53.626;9.906;2024-02-14T02:13:22;9.17;;;5.20;;
14892;SDS011;7538;53.626;9.906;2024-02-14T02:15:50;10.70;;;5.70;;
14892;SDS011;7538;53.626;9.906;2024-02-14T02:18:19;8.43;;;5.83;;
14892;SDS011;7538;53.626;9.906;2024-02-14T02:20:46;8.00;;;4.80;;
14892;SDS011;7538;53.626;9.906;2024-02-14T02:23:14;7.73;;;5.70;;
14892;SDS011;7538;53.626;9.906;2024-02-14T02:25:41;9.20;;;5.67;;
14892;SDS011;7538;53.626;9.906;2024-02-14T02:28:08;7.20;;;6.00;;
14892;SDS011;7538;53.626;9.906;2024-02-14T02:30:35;7.37;;;5.70;;
14892;SDS011;7538;53.626;9.906;2024-02-14T02:33:03;12.20;;;6.00;;
14892;SDS011;7538;53.626;9.906;2024-02-14T02:35:30;8.60;;;6.00;;
14892;SDS011;7538;53.626;9.906;2024-02-14T02:37:57;8.67;;;6.40;;
14892;SDS011;7538;53.626;9.906;2024-02-14T02:40:25;8.13;;;6.17;;
14892;SDS011;7538;53.626;9.906;2024-02-14T02:42:52;9.20;;;6.53;;
14892;SDS011;7538;53.626;9.906;2024-02-14T02:45:19;8.40;;;6.10;;
14892;SDS011;7538;53.626;9.906;2024-02-14T02:47:46;7.73;;;5.63;;
14892;SDS011;7538;53.626;9.906;2024-02-14T02:50:15;8.63;;;6.27;;
14892;SDS011;7538;53.626;9.906;2024-02-14T02:52:41;9.47;;;6.70;;
14892;SDS011;7538;53.626;9.906;2024-02-14T02:55:08;9.97;;;6.30;;
14892;SDS011;7538;53.626;9.906;2024-02-14T02:57:37;8.37;;;6.27;;
14892;SDS011;7538;53.626;9.906;2024-02-14T03:00:06;9.67;;;6.80;;
14892;SDS011;7538;53.626;9.906;2024-02-14T03:02:33;7.33;;;6.60;;
14892;SDS011;7538;53.626;9.906;2024-02-14T03:05:03;10.93;;;6.77;;
14892;SDS011;7538;53.626;9.906;2024-02-14T03:07:35;13.63;;;6.53;;
14892;SDS011;7538;53.626;9.906;2024-02-14T03:10:02;8.63;;;6.40;;
14892;SDS011;7538;53.626;9.906;2024-02-14T03:12:29;10.33;;;6.33;;
14892;SDS011;7538;53.626;9.906;2024-02-14T03:14:59;7.87;;;6.33;;
14892;SDS011;7538;53.626;9.906;2024-02-14T03:17:25;6.27;;;5.67;;
14892;SDS011;7538;53.626;9.906;2024-02-14T03:19:53;9.53;;;7.00;;
14892;SDS011;7538;53.626;9.906;2024-02-14T03:22:21;11.10;;;6.83;;
14892;SDS011;7538;53.626;9.906;2024-02-14T03:24:48;8.37;;;6.23;;
14892;SDS011;7538;53.626;9.906;2024-02-14T03:27:15;10.83;;;6.17;;
14892;SDS011;7538;53.626;9.906;2024-02-14T03:29:42;11.00;;;6.27;;
14892;SDS011;7538;53.626;9.906;2024-02-14T03:32:10;12.93;;;6.70;;
14892;SDS011;7538;53.626;9.906;2024-02-14T03:34:37;9.53;;;6.10;;
14892;SDS011;7538;53.626;9.906;2024-02-14T03:37:04;7.83;;;6.73;;
14892;SDS011;7538;53.626;9.906;2024-02-14T03:39:32;8.40;;;6.60;;
14892;SDS011;7538;53.626;9.906;2024-02-14T03:41:59;13.13;;;6.73;;
14892;SDS011;7538;53.626;9.906;2024-02-14T03:44:27;9.00;;;7.33;;
14892;SDS011;7538;53.626;9.906;2024-02-14T03:46:54;9.87;;;6.67;;
14892;SDS011;7538;53.626;9.906;2024-02-14T03:49:22;9.73;;;6.60;;
14892;SDS011;7538;53.626;9.906;2024-02-14T03:51:50;14.43;;;7.40;;
14892;SDS011;7538;53.626;9.906;2024-02-14T03:54:19;10.43;;;6.90;;
14892;SDS011;7538;53.626;9.906;2024-02-14T03:56:46;9.83;;;7.03;;
14892;SDS011;7538;53.626;9.906;2024-02-14T03:59:13;9.57;;;6.67;;
14892;SDS011;7538;53.626;9.906;2024-02-14T04:01:43;8.13;;;6.70;;
14892;SDS011;7538;53.626;9.906;2024-02-14T04:04:11;13.57;;;7.13;;
14892;SDS011;7538;53.626;9.906;2024-02-14T04:06:39;14.80;;;7.47;;
14892;SDS011;7538;53.626;9.906;2024-02-14T04:09:07;12.43;;;7.43;;
14892;SDS011;7538;53.626;9.906;2024-02-14T04:11:34;15.03;;;7.97;;
14892;SDS011;7538;53.626;9.906;2024-02-14T04:14:01;15.67;;;8.13;;
14892;SDS011;7538;53.626;9.906;2024-02-14T04:16:28;14.83;;;7.90;;
14892;SDS011;7538;53.626;9.906;2024-02-14T04:18:55;15.70;;;7.90;;
14892;SDS011;7538;53.626;9.906;2024-02-14T04:21:21;19.50;;;9.33;;
14892;SDS011;7538;53.626;9.906;2024-02-14T04:23:50;15.67;;;7.70;;
14892;SDS011;7538;53.626;9.906;2024-02-14T04:26:20;17.73;;;8.10;;
14892;SDS011;7538;53.626;9.906;2024-02-14T04:28:47;19.27;;;9.43;;
14892;SDS011;7538;53.626;9.906;2024-02-14T04:31:13;14.80;;;8.50;;
14892;SDS011;7538;53.626;9.906;2024-02-14T04:33:41;16.17;;;9.53;;
14892;SDS011;7538;53.626;9.906;2024-02-14T04:36:08;15.83;;;9.07;;
14892;SDS011;7538;53.626;9.906;2024-02-14T04:38:36;21.23;;;10.20;;
14892;SDS011;7538;53.626;9.906;2024-02-14T04:41:04;15.57;;;9.33;;
14892;SDS011;7538;53.626;9.906;2024-02-14T04:43:31;17.83;;;9.90;;
14892;SDS011;7538;53.626;9.906;2024-02-14T04:45:58;18.20;;;9.77;;
14892;SDS011;7538;53.626;9.906;2024-02-14T04:48:25;18.17;;;10.70;;
14892;SDS011;7538;53.626;9.906;2024-02-14T04:50:52;17.97;;;10.37;;
14892;SDS011;7538;53.626;9.906;2024-02-14T04:53:19;22.23;;;10.90;;
14892;SDS011;7538;53.626;9.906;2024-02-14T04:55:46;17.10;;;10.57;;
14892;SDS011;7538;53.626;9.906;2024-02-14T04:58:14;22.73;;;11.23;;
14892;SDS011;7538;53.626;9.906;2024-02-14T05:00:41;16.70;;;11.27;;
14892;SDS011;7538;53.626;9.906;2024-02-14T05:03:08;13.30;;;10.20;;
14892;SDS011;7538;53.626;9.906;2024-02-14T05:05:35;18.37;;;10.70;;
14892;SDS011;7538;53.626;9.906;2024-02-14T05:08:03;17.50;;;11.53;;
14892;SDS011;7538;53.626;9.906;2024-02-14T05:10:30;20.07;;;11.20;;
14892;SDS011;7538;53.626;9.906;2024-02-14T05:12:57;17.30;;;11.10;;
14892;SDS011;7538;53.626;9.906;2024-02-14T05:15:25;16.93;;;11.63;;
14892;SDS011;7538;53.626;9.906;2024-02-14T05:17:52;17.90;;;11.60;;
14892;SDS011;7538;53.626;9.906;2024-02-14T05:20:20;31.07;;;14.00;;
14892;SDS011;7538;53.626;9.906;2024-02-14T05:22:47;29.20;;;13.10;;
14892;SDS011;7538;53.626;9.906;2024-02-14T05:25:14;19.83;;;11.87;;
14892;SDS011;7538;53.626;9.906;2024-02-14T05:27:41;22.63;;;12.90;;
14892;SDS011;7538;53.626;9.906;2024-02-14T05:30:08;38.40;;;15.60;;
14892;SDS011;7538;53.626;9.906;2024-02-14T05:32:36;27.43;;;15.17;;
14892;SDS011;7538;53.626;9.906;2024-02-14T05:35:04;25.97;;;12.27;;
14892;SDS011;7538;53.626;9.906;2024-02-14T05:37:33;29.57;;;14.13;;
14892;SDS011;7538;53.626;9.906;2024-02-14T05:40:02;14.93;;;11.50;;
14892;SDS011;7538;53.626;9.906;2024-02-14T05:42:31;26.67;;;14.03;;
14892;SDS011;7538;53.626;9.906;2024-02-14T05:44:59;21.57;;;12.73;;
14892;SDS011;7538;53.626;9.906;2024-02-14T05:47:28;19.20;;;11.30;;
14892;SDS011;7538;53.626;9.906;2024-02-14T05:49:58;21.07;;;12.90;;
14892;SDS011;7538;53.626;9.906;2024-02-14T05:52:25;18.87;;;12.17;;
14892;SDS011;7538;53.626;9.906;2024-02-14T05:54:51;21.70;;;13.07;;
14892;SDS011;7538;53.626;9.906;2024-02-14T05:57:19;18.00;;;12.27;;
14892;SDS011;7538;53.626;9.906;2024-02-14T05:59:46;18.20;;;10.93;;
14892;SDS011;7538;53.626;9.906;2024-02-14T06:02:13;19.40;;;12.57;;
14892;SDS011;7538;53.626;9.906;2024-02-14T06:04:39;14.77;;;11.30;;
14892;SDS011;7538;53.626;9.906;2024-02-14T06:07:08;25.53;;;13.33;;
14892;SDS011;7538;53.626;9.906;2024-02-14T06:09:36;17.77;;;11.83;;
14892;SDS011;7538;53.626;9.906;2024-02-14T06:12:03;17.50;;;12.00;;
14892;SDS011;7538;53.626;9.906;2024-02-14T06:14:30;19.30;;;11.93;;
14892;SDS011;7538;53.626;9.906;2024-02-14T06:16:59;13.50;;;10.67;;
14892;SDS011;7538;53.626;9.906;2024-02-14T06:19:26;15.23;;;10.73;;
14892;SDS011;7538;53.626;9.906;2024-02-14T06:21:52;17.23;;;11.57;;
14892;SDS011;7538;53.626;9.906;2024-02-14T06:24:21;16.93;;;11.13;;
14892;SDS011;7538;53.626;9.906;2024-02-14T06:26:47;18.63;;;11.90;;
14892;SDS011;7538;53.626;9.906;2024-02-14T06:29:14;16.73;;;11.13;;
14892;SDS011;7538;53.626;9.906;2024-02-14T06:31:41;14.17;;;11.37;;
14892;SDS011;7538;53.626;9.906;2024-02-14T06:34:08;20.40;;;12.93;;
14892;SDS011;7538;53.626;9.906;2024-02-14T06:36:35;15.83;;;11.27;;
14892;SDS011;7538;53.626;9.906;2024-02-14T06:39:02;13.57;;;10.43;;
14892;SDS011;7538;53.626;9.906;2024-02-14T06:41:31;18.77;;;11.63;;
14892;SDS011;7538;53.626;9.906;2024-02-14T06:43:58;29.13;;;14.17;;
14892;SDS011;7538;53.626;9.906;2024-02-14T06:46:25;13.33;;;10.60;;
14892;SDS011;7538;53.626;9.906;2024-02-14T06:48:52;15.47;;;10.60;;
14892;SDS011;7538;53.626;9.906;2024-02-14T06:51:19;27.10;;;13.20;;
14892;SDS011;7538;53.626;9.906;2024-02-14T06:53:46;17.80;;;11.73;;
14892;SDS011;7538;53.626;9.906;2024-02-14T06:56:13;14.37;;;10.97;;
14892;SDS011;7538;53.626;9.906;2024-02-14T06:58:42;13.60;;;10.33;;
14892;SDS011;7538;53.626;9.906;2024-02-14T07:01:10;21.17;;;12.40;;
14892;SDS011;7538;53.626;9.906;2024-02-14T07:03:38;24.60;;;13.10;;
14892;SDS011;7538;53.626;9.906;2024-02-14T07:06:05;13.63;;;9.97;;
14892;SDS011;7538;53.626;9.906;2024-02-14T07:08:32;16.57;;;10.20;;
14892;SDS011;7538;53.626;9.906;2024-02-14T07:10:59;15.40;;;11.27;;
14892;SDS011;7538;53.626;9.906;2024-02-14T07:13:26;13.77;;;10.67;;
14892;SDS011;7538;53.626;9.906;2024-02-14T07:15:54;15.03;;;11.33;;
14892;SDS011;7538;53.626;9.906;2024-02-14T07:18:21;16.77;;;11.15;;
14892;SDS011;7538;53.626;9.906;2024-02-14T07:20:48;21.58;;;12.50;;
14892;SDS011;7538;53.626;9.906;2024-02-14T07:23:15;14.37;;;10.73;;
14892;SDS011;7538;53.626;9.906;2024-02-14T07:25:43;18.50;;;11.52;;
14892;SDS011;7538;53.626;9.906;2024-02-14T07:28:10;16.77;;;11.53;;
14892;SDS011;7538;53.626;9.906;2024-02-14T07:30:36;14.07;;;11.23;;
14892;SDS011;7538;53.626;9.906;2024-02-14T07:33:05;15.60;;;12.53;;
14892;SDS011;7538;53.626;9.906;2024-02-14T07:35:33;28.40;;;13.17;;
14892;SDS011;7538;53.626;9.906;2024-02-14T07:37:59;18.17;;;11.57;;
14892;SDS011;7538;53.626;9.906;2024-02-14T07:40:26;17.50;;;12.30;;
14892;SDS011;7538;53.626;9.906;2024-02-14T07:42:56;19.10;;;12.33;;
14892;SDS011;7538;53.626;9.906;2024-02-14T07:45:22;19.27;;;11.73;;
14892;SDS011;7538;53.626;9.906;2024-02-14T07:47:49;16.00;;;11.40;;
14892;SDS011;7538;53.626;9.906;2024-02-14T07:50:17;18.40;;;11.57;;
14892;SDS011;7538;53.626;9.906;2024-02-14T07:52:44;20.07;;;12.87;;
14892;SDS011;7538;53.626;9.906;2024-02-14T07:55:11;14.73;;;11.97;;
14892;SDS011;7538;53.626;9.906;2024-02-14T07:57:38;19.37;;;12.77;;
14892;SDS011;7538;53.626;9.906;2024-02-14T08:00:05;18.40;;;12.80;;
14892;SDS011;7538;53.626;9.906;2024-02-14T08:02:33;16.27;;;12.70;;
14892;SDS011;7538;53.626;9.906;2024-02-14T08:05:01;15.13;;;11.83;;
14892;SDS011;7538;53.626;9.906;2024-02-14T08:07:31;18.63;;;12.37;;
14892;SDS011;7538;53.626;9.906;2024-02-14T08:09:58;17.38;;;12.38;;
14892;SDS011;7538;53.626;9.906;2024-02-14T08:12:24;18.30;;;11.77;;
14892;SDS011;7538;53.626;9.906;2024-02-14T08:14:51;36.93;;;17.10;;
14892;SDS011;7538;53.626;9.906;2024-02-14T08:17:18;21.20;;;12.93;;
14892;SDS011;7538;53.626;9.906;2024-02-14T08:19:45;20.63;;;12.53;;
14892;SDS011;7538;53.626;9.906;2024-02-14T08:22:13;33.17;;;15.67;;
14892;SDS011;7538;53.626;9.906;2024-02-14T08:24:41;18.97;;;11.90;;
14892;SDS011;7538;53.626;9.906;2024-02-14T08:27:08;13.60;;;11.50;;
14892;SDS011;7538;53.626;9.906;2024-02-14T08:29:35;15.37;;;11.37;;
14892;SDS011;7538;53.626;9.906;2024-02-14T08:32:02;13.83;;;10.50;;
14892;SDS011;7538;53.626;9.906;2024-02-14T08:34:30;16.85;;;12.25;;
14892;SDS011;7538;53.626;9.906;2024-02-14T08:36:56;15.53;;;11.43;;
14892;SDS011;7538;53.626;9.906;2024-02-14T08:39:23;15.13;;;10.90;;
14892;SDS011;7538;53.626;9.906;2024-02-14T08:41:52;28.33;;;14.60;;
14892;SDS011;7538;53.626;9.906;2024-02-14T08:44:19;14.70;;;10.77;;
14892;SDS011;7538;53.626;9.906;2024-02-14T08:46:45;15.48;;;11.52;;
14892;SDS011;7538;53.626;9.906;2024-02-14T08:49:13;11.93;;;9.57;;
14892;SDS011;7538;53.626;9.906;2024-02-14T08:51:40;13.87;;;9.30;;
14892;SDS011;7538;53.626;9.906;2024-02-14T08:54:09;24.30;;;12.07;;
14892;SDS011;7538;53.626;9.906;2024-02-14T08:56:36;24.67;;;11.67;;
14892;SDS011;7538;53.626;9.906;2024-02-14T08:59:05;19.67;;;10.53;;
14892;SDS011;7538;53.626;9.906;2024-02-14T09:01:31;16.23;;;9.43;;
14892;SDS011;7538;53.626;9.906;2024-02-14T09:03:59;18.17;;;9.57;;
14892;SDS011;7538;53.626;9.906;2024-02-14T09:06:26;9.60;;;7.93;;
14892;SDS011;7538;53.626;9.906;2024-02-14T09:08:54;15.90;;;8.63;;
14892;SDS011;7538;53.626;9.906;2024-02-14T09:11:21;9.77;;;7.43;;
14892;SDS011;7538;53.626;9.906;2024-02-14T09:13:48;13.88;;;7.85;;
14892;SDS011;7538;53.626;9.906;2024-02-14T09:16:20;23.80;;;10.40;;
14892;SDS011;7538;53.626;9.906;2024-02-14T09:18:49;28.38;;;11.88;;
14892;SDS011;7538;53.626;9.906;2024-02-14T09:21:16;11.35;;;7.88;;
14892;SDS011;7538;53.626;9.906;2024-02-14T09:23:44;14.00;;;7.95;;
14892;SDS011;7538;53.626;9.906;2024-02-14T09:26:12;16.02;;;9.13;;
14892;SDS011;7538;53.626;9.906;2024-02-14T09:28:41;26.55;;;10.23;;
14892;SDS011;7538;53.626;9.906;2024-02-14T09:31:08;14.53;;;9.40;;
14892;SDS011;7538;53.626;9.906;2024-02-14T09:33:37;11.05;;;8.40;;
14892;SDS011;7538;53.626;9.906;2024-02-14T09:36:05;11.02;;;7.85;;
14892;SDS011;7538;53.626;9.906;2024-02-14T09:38:32;15.03;;;8.70;;
14892;SDS011;7538;53.626;9.906;2024-02-14T09:41:02;11.25;;;8.60;;
14892;SDS011;7538;53.626;9.906;2024-02-14T09:43:34;10.30;;;7.70;;
14892;SDS011;7538;53.626;9.906;2024-02-14T09:46:04;12.77;;;8.65;;
14892;SDS011;7538;53.626;9.906;2024-02-14T09:48:32;17.08;;;8.60;;
14892;SDS011;7538;53.626;9.906;2024-02-14T09:51:01;11.13;;;8.35;;
14892;SDS011;7538;53.626;9.906;2024-02-14T09:53:28;15.90;;;8.85;;
14892;SDS011;7538;53.626;9.906;2024-02-14T09:55:56;10.25;;;7.93;;
14892;SDS011;7538;53.626;9.906;2024-02-14T09:58:24;11.43;;;7.82;;
14892;SDS011;7538;53.626;9.906;2024-02-14T10:00:58;18.60;;;10.48;;
14892;SDS011;7538;53.626;9.906;2024-02-14T10:03:24;10.05;;;6.53;;
14892;SDS011;7538;53.626;9.906;2024-02-14T10:05:51;10.50;;;7.05;;
14892;SDS011;7538;53.626;9.906;2024-02-14T10:08:20;11.93;;;8.13;;
14892;SDS011;7538;53.626;9.906;2024-02-14T10:10:47;10.85;;;7.32;;
14892;SDS011;7538;53.626;9.906;2024-02-14T10:13:15;11.38;;;7.25;;
14892;SDS011;7538;53.626;9.906;2024-02-14T10:15:42;8.45;;;7.10;;
14892;SDS011;7538;53.626;9.906;2024-02-14T10:18:09;16.00;;;8.18;;
14892;SDS011;7538;53.626;9.906;2024-02-14T10:20:35;8.77;;;6.20;;
14892;SDS011;7538;53.626;9.906;2024-02-14T10:23:07;8.35;;;6.85;;
14892;SDS011;7538;53.626;9.906;2024-02-14T10:25:36;8.63;;;6.53;;
14892;SDS011;7538;53.626;9.906;2024-02-14T10:28:03;7.03;;;5.90;;
14892;SDS011;7538;53.626;9.906;2024-02-14T10:30:33;8.98;;;6.95;;
14892;SDS011;7538;53.626;9.906;2024-02-14T10:33:03;7.57;;;6.22;;
14892;SDS011;7538;53.626;9.906;2024-02-14T10:35:32;11.85;;;7.28;;
14892;SDS011;7538;53.626;9.906;2024-02-14T10:37:59;8.35;;;6.80;;
14892;SDS011;7538;53.626;9.906;2024-02-14T10:40:28;6.93;;;5.85;;
14892;SDS011;7538;53.626;9.906;2024-02-14T10:42:56;10.80;;;7.57;;
14892;SDS011;7538;53.626;9.906;2024-02-14T10:45:23;8.25;;;6.65;;
14892;SDS011;7538;53.626;9.906;2024-02-14T10:47:51;11.40;;;7.35;;
14892;SDS011;7538;53.626;9.906;2024-02-14T10:50:20;23.77;;;9.98;;
14892;SDS011;7538;53.626;9.906;2024-02-14T10:52:48;7.60;;;6.10;;
14892;SDS011;7538;53.626;9.906;2024-02-14T10:55:16;7.13;;;5.72;;
14892;SDS011;7538;53.626;9.906;2024-02-14T10:57:43;9.10;;;7.05;;
14892;SDS011;7538;53.626;9.906;2024-02-14T11:00:14;13.10;;;7.53;;
14892;SDS011;7538;53.626;9.906;2024-02-14T11:02:43;7.07;;;6.05;;
14892;SDS011;7538;53.626;9.906;2024-02-14T11:05:12;7.68;;;6.10;;
14892;SDS011;7538;53.626;9.906;2024-02-14T11:07:43;7.43;;;5.50;;
14892;SDS011;7538;53.626;9.906;2024-02-14T11:10:13;7.22;;;6.05;;
14892;SDS011;7538;53.626;9.906;2024-02-14T11:12:41;11.50;;;6.40;;
14892;SDS011;7538;53.626;9.906;2024-02-14T11:15:10;11.25;;;7.00;;
14892;SDS011;7538;53.626;9.906;2024-02-14T11:17:42;6.88;;;5.60;;
14892;SDS011;7538;53.626;9.906;2024-02-14T11:20:16;5.93;;;5.18;;
14892;SDS011;7538;53.626;9.906;2024-02-14T11:22:52;6.43;;;5.82;;
14892;SDS011;7538;53.626;9.906;2024-02-14T11:25:22;10.60;;;7.32;;
14892;SDS011;7538;53.626;9.906;2024-02-14T11:27:59;6.47;;;5.55;;
14892;SDS011;7538;53.626;9.906;2024-02-14T11:30:32;8.80;;;6.57;;
14892;SDS011;7538;53.626;9.906;2024-02-14T11:33:12;14.88;;;9.20;;
14892;SDS011;7538;53.626;9.906;2024-02-14T11:35:44;8.20;;;6.15;;
14892;SDS011;7538;53.626;9.906;2024-02-14T11:38:12;9.07;;;6.68;;
14892;SDS011;7538;53.626;9.906;2024-02-14T11:40:40;7.35;;;6.57;;
14892;SDS011;7538;53.626;9.906;2024-02-14T11:43:10;6.75;;;6.05;;
14892;SDS011;7538;53.626;9.906;2024-02-14T11:45:40;8.50;;;7.10;;
14892;SDS011;7538;53.626;9.906;2024-02-14T11:48:08;7.97;;;6.43;;
14892;SDS011;7538;53.626;9.906;2024-02-14T11:50:35;6.45;;;5.85;;
14892;SDS011;7538;53.626;9.906;2024-02-14T11:53:04;8.32;;;6.68;;
14892;SDS011;7538;53.626;9.906;2024-02-14T11:55:32;7.20;;;6.45;;
14892;SDS011;7538;53.626;9.906;2024-02-14T11:58:02;8.25;;;6.90;;
14892;SDS011;7538;53.626;9.906;2024-02-14T12:00:29;8.68;;;6.22;;
14892;SDS011;7538;53.626;9.906;2024-02-14T12:02:57;7.20;;;6.50;;
14892;SDS011;7538;53.626;9.906;2024-02-14T12:05:24;7.22;;;6.32;;
14892;SDS011;7538;53.626;9.906;2024-02-14T12:07:51;7.53;;;6.00;;
14892;SDS011;7538;53.626;9.906;2024-02-14T12:10:18;6.45;;;5.85;;
14892;SDS011;7538;53.626;9.906;2024-02-14T12:12:46;7.85;;;5.57;;
14892;SDS011;7538;53.626;9.906;2024-02-14T12:15:16;8.77;;;6.20;;
14892;SDS011;7538;53.626;9.906;2024-02-14T12:17:42;7.20;;;6.05;;
14892;SDS011;7538;53.626;9.906;2024-02-14T12:20:15;9.45;;;6.95;;
14892;SDS011;7538;53.626;9.906;2024-02-14T12:22:41;6.85;;;5.78;;
14892;SDS011;7538;53.626;9.906;2024-02-14T12:25:08;8.32;;;5.88;;
14892;SDS011;7538;53.626;9.906;2024-02-14T12:27:36;6.30;;;5.15;;
14892;SDS011;7538;53.626;9.906;2024-02-14T12:30:03;5.85;;;5.25;;
14892;SDS011;7538;53.626;9.906;2024-02-14T12:32:30;6.47;;;5.50;;
14892;SDS011;7538;53.626;9.906;2024-02-14T12:34:58;5.55;;;4.90;;
14892;SDS011;7538;53.626;9.906;2024-02-14T12:37:26;9.40;;;5.95;;
14892;SDS011;7538;53.626;9.906;2024-02-14T12:39:53;5.07;;;4.32;;
14892;SDS011;7538;53.626;9.906;2024-02-14T12:42:20;6.43;;;5.45;;
14892;SDS011;7538;53.626;9.906;2024-02-14T12:44:50;6.10;;;5.20;;
14892;SDS011;7538;53.626;9.906;2024-02-14T12:47:17;5.63;;;4.55;;
14892;SDS011;7538;53.626;9.906;2024-02-14T12:49:46;6.53;;;5.57;;
14892;SDS011;7538;53.626;9.906;2024-02-14T12:52:13;7.07;;;5.47;;
14892;SDS011;7538;53.626;9.906;2024-02-14T12:54:41;5.82;;;4.97;;
14892;SDS011;7538;53.626;9.906;2024-02-14T12:57:09;5.57;;;5.05;;
14892;SDS011;7538;53.626;9.906;2024-02-14T12:59:36;5.82;;;5.22;;
14892;SDS011;7538;53.626;9.906;2024-02-14T13:02:03;11.73;;;6.78;;
14892;SDS011;7538;53.626;9.906;2024-02-14T13:04:31;5.82;;;4.95;;
14892;SDS011;7538;53.626;9.906;2024-02-14T13:06:59;6.03;;;4.63;;
14892;SDS011;7538;53.626;9.906;2024-02-14T13:09:25;6.53;;;5.18;;
14892;SDS011;7538;53.626;9.906;2024-02-14T13:11:54;5.88;;;4.75;;
14892;SDS011;7538;53.626;9.906;2024-02-14T13:14:21;7.22;;;5.78;;
14892;SDS011;7538;53.626;9.906;2024-02-14T13:16:47;9.00;;;6.18;;
14892;SDS011;7538;53.626;9.906;2024-02-14T13:19:14;8.85;;;6.63;;
14892;SDS011;7538;53.626;9.906;2024-02-14T13:21:42;8.88;;;6.85;;
14892;SDS011;7538;53.626;9.906;2024-02-14T13:24:10;7.72;;;6.93;;
14892;SDS011;7538;53.626;9.906;2024-02-14T13:26:38;13.57;;;8.85;;
14892;SDS011;7538;53.626;9.906;2024-02-14T13:29:07;9.40;;;8.30;;
14892;SDS011;7538;53.626;9.906;2024-02-14T13:31:33;7.93;;;7.13;;
14892;SDS011;7538;53.626;9.906;2024-02-14T13:34:00;18.30;;;9.30;;
14892;SDS011;7538;53.626;9.906;2024-02-14T13:36:28;14.57;;;8.73;;
14892;SDS011;7538;53.626;9.906;2024-02-14T13:38:56;8.75;;;7.75;;
14892;SDS011;7538;53.626;9.906;2024-02-14T13:41:23;17.83;;;9.40;;
14892;SDS011;7538;53.626;9.906;2024-02-14T13:43:50;9.85;;;7.57;;
14892;SDS011;7538;53.626;9.906;2024-02-14T13:46:18;11.65;;;8.75;;
14892;SDS011;7538;53.626;9.906;2024-02-14T13:48:45;9.82;;;8.38;;
14892;SDS011;7538;53.626;9.906;2024-02-14T13:51:12;10.90;;;8.93;;
14892;SDS011;7538;53.626;9.906;2024-02-14T13:53:38;11.27;;;8.52;;
14892;SDS011;7538;53.626;9.906;2024-02-14T13:56:06;14.85;;;10.40;;
14892;SDS011;7538;53.626;9.906;2024-02-14T13:58:32;18.30;;;10.70;;
14892;SDS011;7538;53.626;9.906;2024-02-14T14:00:59;12.75;;;8.30;;
14892;SDS011;7538;53.626;9.906;2024-02-14T14:03:27;16.65;;;9.73;;
14892;SDS011;7538;53.626;9.906;2024-02-14T14:05:55;12.25;;;9.45;;
14892;SDS011;7538;53.626;9.906;2024-02-14T14:08:22;15.85;;;10.00;;
14892;SDS011;7538;53.626;9.906;2024-02-14T14:10:49;13.23;;;9.32;;
14892;SDS011;7538;53.626;9.906;2024-02-14T14:13:15;17.85;;;10.73;;
14892;SDS011;7538;53.626;9.906;2024-02-14T14:15:42;13.60;;;9.48;;
14892;SDS011;7538;53.626;9.906;2024-02-14T14:18:09;15.55;;;10.05;;
14892;SDS011;7538;53.626;9.906;2024-02-14T14:20:38;11.68;;;9.30;;
14892;SDS011;7538;53.626;9.906;2024-02-14T14:23:05;18.33;;;11.50;;
14892;SDS011;7538;53.626;9.906;2024-02-14T14:25:34;18.25;;;11.20;;
14892;SDS011;7538;53.626;9.906;2024-02-14T14:28:02;19.48;;;11.45;;
14892;SDS011;7538;53.626;9.906;2024-02-14T14:30:29;12.77;;;10.20;;
14892;SDS011;7538;53.626;9.906;2024-02-14T14:32:56;15.13;;;10.57;;
14892;SDS011;7538;53.626;9.906;2024-02-14T14:35:23;12.13;;;9.05;;
14892;SDS011;7538;53.626;9.906;2024-02-14T14:37:51;14.25;;;10.40;;
14892;SDS011;7538;53.626;9.906;2024-02-14T14:40:19;16.75;;;10.48;;
14892;SDS011;7538;53.626;9.906;2024-02-14T14:42:46;14.60;;;9.45;;
14892;SDS011;7538;53.626;9.906;2024-02-14T14:45:13;18.23;;;11.25;;
14892;SDS011;7538;53.626;9.906;2024-02-14T14:47:40;19.30;;;10.85;;
14892;SDS011;7538;53.626;9.906;2024-02-14T14:50:07;20.67;;;11.02;;